Time;durP1;ratioP1;P1;durP2;ratioP2;P2;SDS_P1;SDS_P2;PMS_P1;PMS_P2;Temp;Humidity;BMP_temperature;BMP_pressure;BME280_temperature;BME280_humidity;BME280_pressure;Samples;Min_cycle;Max_cycle;Signal;HPM_P1;HPM_P2
2022/08/10 00:01:52;;;;;;;;;;;;;;;28.67;27.50;99689.34;4514130;31;33813;-92
2022/08/10 00:04:20;;;;;;;;;;;;;;;28.40;27.24;99687.19;4514346;31;33924;-90
2022/08/10 00:06:49;;;;;;;;;;;;;;;28.23;28.16;99680.06;4515641;31;34200;-89
2022/08/10 00:09:17;;;;;;;;;;;;;;;27.92;28.59;99680.78;4515104;31;34287;-92
2022/08/10 00:11:44;;;;;;;;;;;;;;;28.03;28.46;99683.72;4515160;31;34174;-89
2022/08/10 00:14:11;;;;;;;;;;;;;;;28.00;28.74;99681.25;4515587;31;34561;-90
2022/08/10 00:16:38;;;;;;;;;;;;;;;27.83;29.11;99670.56;4515144;31;34748;-91
2022/08/10 00:19:06;;;;;;;;;;;;;;;27.95;28.33;99675.25;4515912;31;33858;-94
2022/08/10 00:21:33;;;;;;;;;;;;;;;27.33;29.21;99668.56;4515552;31;33979;-91
2022/08/10 00:24:00;;;;;;;;;;;;;;;27.96;28.73;99669.00;4515102;31;33413;-89
2022/08/10 00:26:28;;;;;;;;;;;;;;;28.09;28.76;99667.44;4514422;31;33986;-92
2022/08/10 00:29:15;;;;;;;;;;;;;;;28.82;27.08;99670.69;4515289;31;34211;-91
2022/08/10 00:31:42;;;;;;;;;;;;;;;28.97;27.26;99670.81;4515061;31;33848;-91
2022/08/10 00:34:25;;;;;;;;;;;;;;;28.89;27.08;99673.91;4513921;31;33953;-93
2022/08/10 00:36:53;;;;;;;;;;;;;;;28.92;27.68;99672.87;4513703;31;35153;-91
2022/08/10 00:39:20;;;;;;;;;;;;;;;28.62;27.83;99669.12;4514977;31;33048;-89
2022/08/10 00:41:48;;;;;;;;;;;;;;;28.32;28.09;99674.22;4514886;31;34285;-90
2022/08/10 00:44:34;;;;;;;;;;;;;;;27.51;29.39;99675.66;4513443;31;34220;-93
2022/08/10 00:47:02;;;;;;;;;;;;;;;27.94;28.54;99662.88;4514814;31;35062;-91
2022/08/10 00:49:29;;;;;;;;;;;;;;;28.32;28.45;99662.72;4514824;31;33013;-91
2022/08/10 00:51:56;;;;;;;;;;;;;;;28.17;28.16;99663.50;4515024;31;35394;-94
2022/08/10 00:54:24;;;;;;;;;;;;;;;28.00;28.72;99667.91;4514454;31;34094;-92
2022/08/10 00:56:51;;;;;;;;;;;;;;;27.94;28.93;99665.56;4509546;31;34388;-92
2022/08/10 00:59:41;;;;;;;;;;;;;;;28.14;28.68;99670.72;4514592;31;33975;-92
2022/08/10 01:02:30;;;;;;;;;;;;;;;28.07;28.52;99668.44;4498031;31;33640;-89
2022/08/10 01:04:59;;;;;;;;;;;;;;;28.28;28.63;99677.16;4497787;31;35174;-90
2022/08/10 01:07:35;;;;;;;;;;;;;;;28.44;28.27;99664.75;4511916;31;34104;-91
2022/08/10 01:10:14;;;;;;;;;;;;;;;28.23;28.87;99669.41;4513671;31;32899;-91
2022/08/10 01:12:49;;;;;;;;;;;;;;;27.75;29.36;99667.41;4512155;31;33624;-89
2022/08/10 01:15:20;;;;;;;;;;;;;;;28.28;28.14;99661.16;4513571;31;34389;-88
2022/08/10 01:17:57;;;;;;;;;;;;;;;27.31;29.75;99668.59;4514725;31;34199;-89
2022/08/10 01:20:33;;;;;;;;;;;;;;;27.86;29.32;99662.41;4498553;31;33137;-90
2022/08/10 01:23:03;;;;;;;;;;;;;;;27.73;29.17;99658.59;4497260;31;34731;-89
2022/08/10 01:25:45;;;;;;;;;;;;;;;27.98;28.98;99660.94;4500631;31;34926;-89
2022/08/10 01:28:32;;;;;;;;;;;;;;;27.90;29.71;99661.31;4514767;31;34149;-88
2022/08/10 01:30:59;;;;;;;;;;;;;;;28.13;29.38;99662.81;4514747;31;33361;-88
2022/08/10 01:33:39;;;;;;;;;;;;;;;27.84;29.13;99658.94;4514486;31;33896;-89
2022/08/10 01:36:28;;;;;;;;;;;;;;;27.83;29.51;99665.22;4513346;31;34285;-91
2022/08/10 01:38:59;;;;;;;;;;;;;;;27.86;29.79;99662.41;4514256;31;34823;-89
2022/08/10 01:41:32;;;;;;;;;;;;;;;28.10;29.03;99663.81;4513374;31;33456;-89
2022/08/10 01:44:14;;;;;;;;;;;;;;;28.14;29.17;99661.84;4514678;31;34297;-90
2022/08/10 01:46:44;;;;;;;;;;;;;;;27.58;30.09;99666.44;4513308;31;35263;-93
2022/08/10 01:49:12;;;;;;;;;;;;;;;27.88;29.61;99669.41;4512986;31;34967;-93
2022/08/10 01:51:41;;;;;;;;;;;;;;;28.17;29.33;99667.03;4512952;31;34429;-91
2022/08/10 01:54:10;;;;;;;;;;;;;;;27.80;29.23;99665.37;4501947;31;34973;-91
2022/08/10 01:56:40;;;;;;;;;;;;;;;27.81;29.81;99678.63;4511905;31;35246;-91
2022/08/10 01:59:11;;;;;;;;;;;;;;;27.69;29.79;99668.53;4497168;31;34065;-91
2022/08/10 02:01:40;;;;;;;;;;;;;;;27.28;30.71;99679.44;4497310;31;33173;-93
2022/08/10 02:04:09;;;;;;;;;;;;;;;27.36;30.24;99677.25;4497108;31;34960;-91
2022/08/10 02:06:37;;;;;;;;;;;;;;;27.44;30.13;99679.53;4509214;31;35304;-90
2022/08/10 02:09:05;;;;;;;;;;;;;;;27.24;30.61;99677.84;4501758;31;34290;-89
2022/08/10 02:11:34;;;;;;;;;;;;;;;27.11;30.66;99674.88;4510404;31;34104;-91
2022/08/10 02:14:23;;;;;;;;;;;;;;;26.18;32.51;99684.38;4513574;31;34268;-91
2022/08/10 02:16:50;;;;;;;;;;;;;;;26.90;31.33;99674.06;4505822;31;35331;-90
2022/08/10 02:19:18;;;;;;;;;;;;;;;27.34;30.69;99680.91;4513219;31;34229;-92
2022/08/10 02:21:47;;;;;;;;;;;;;;;27.82;30.18;99671.50;4515992;31;33412;-92
2022/08/10 02:24:35;;;;;;;;;;;;;;;26.75;32.10;99687.22;4515098;31;34279;-92
2022/08/10 02:27:04;;;;;;;;;;;;;;;27.83;29.72;99675.88;4514721;31;35215;-92
2022/08/10 02:29:31;;;;;;;;;;;;;;;26.97;31.50;99679.09;4514546;31;34908;-91
2022/08/10 02:31:59;;;;;;;;;;;;;;;27.61;30.61;99679.56;4515311;31;33332;-89
2022/08/10 02:34:26;;;;;;;;;;;;;;;27.81;30.38;99678.63;4515339;31;34081;-88
2022/08/10 02:36:55;;;;;;;;;;;;;;;28.07;30.00;99679.09;4514661;31;35428;-92
2022/08/10 02:39:22;;;;;;;;;;;;;;;27.57;30.82;99683.31;4513932;31;34128;-89
2022/08/10 02:41:54;;;;;;;;;;;;;;;28.15;29.59;99682.25;4514614;31;33500;-92
2022/08/10 02:45:05;;;;;;;;;;;;;;;28.08;30.07;99689.69;4514896;31;36233;-89
2022/08/10 02:48:25;;;;;;;;;;;;;;;28.05;30.31;99684.53;4514882;31;34785;-90
2022/08/10 02:50:55;;;;;;;;;;;;;;;28.62;29.57;99692.28;4480782;31;34323;-89
2022/08/10 02:53:25;;;;;;;;;;;;;;;28.46;29.37;99697.56;4513452;31;34264;-89
2022/08/10 02:56:35;;;;;;;;;;;;;;;28.47;29.94;99699.28;4516052;31;35113;-89
2022/08/10 02:59:05;;;;;;;;;;;;;;;28.65;30.52;99702.78;4515958;31;34100;-90
2022/08/10 03:01:33;;;;;;;;;;;;;;;28.16;30.90;99712.44;4514695;31;34469;-88
2022/08/10 03:04:04;;;;;;;;;;;;;;;28.16;30.00;99707.12;4514390;31;33288;-90
2022/08/10 03:06:36;;;;;;;;;;;;;;;28.36;30.55;99710.47;4514271;31;35095;-89
2022/08/10 03:09:05;;;;;;;;;;;;;;;28.49;30.71;99718.75;4514303;31;34650;-89
2022/08/10 03:11:32;;;;;;;;;;;;;;;28.72;30.42;99709.53;4514625;31;34137;-90
2022/08/10 03:14:20;;;;;;;;;;;;;;;28.62;30.49;99717.13;4514083;31;33647;-90
2022/08/10 03:16:47;;;;;;;;;;;;;;;28.57;30.63;99716.53;4498209;31;34117;-89
2022/08/10 03:19:14;;;;;;;;;;;;;;;28.51;30.49;99722.16;4498318;31;35139;-89
2022/08/10 03:22:02;;;;;;;;;;;;;;;28.42;30.69;99727.16;4513717;31;34428;-90
2022/08/10 03:24:29;;;;;;;;;;;;;;;28.09;30.85;99728.75;4514470;31;34152;-90
2022/08/10 03:26:59;;;;;;;;;;;;;;;27.59;32.07;99729.41;4514551;31;33688;-88
2022/08/10 03:29:27;;;;;;;;;;;;;;;27.46;31.42;99725.59;4512576;31;34568;-89
2022/08/10 03:31:54;;;;;;;;;;;;;;;27.46;31.43;99725.59;4514537;31;34543;-90
2022/08/10 03:34:22;;;;;;;;;;;;;;;27.31;32.19;99728.97;4514993;31;33128;-89
2022/08/10 03:37:00;;;;;;;;;;;;;;;27.13;32.31;99733.38;4502324;31;34407;-89
2022/08/10 03:39:27;;;;;;;;;;;;;;;26.62;32.50;99748.91;4514876;31;34442;-89
2022/08/10 03:41:56;;;;;;;;;;;;;;;26.81;32.50;99741.00;4505002;31;34249;-90
2022/08/10 03:44:24;;;;;;;;;;;;;;;26.51;33.05;99734.37;4514277;31;33415;-89
2022/08/10 03:46:52;;;;;;;;;;;;;;;26.68;33.04;99738.03;4499365;31;34145;-90
2022/08/10 03:49:19;;;;;;;;;;;;;;;26.94;32.63;99733.34;4499957;31;34267;-89
2022/08/10 03:51:48;;;;;;;;;;;;;;;27.32;31.72;99726.25;4512804;31;33642;-90
2022/08/10 03:54:15;;;;;;;;;;;;;;;27.68;31.54;99730.75;4515650;31;33589;-90
2022/08/10 03:56:43;;;;;;;;;;;;;;;27.73;32.28;99735.84;4514320;31;33819;-91
2022/08/10 03:59:11;;;;;;;;;;;;;;;27.37;31.85;99739.34;4514445;31;34233;-90
2022/08/10 04:01:39;;;;;;;;;;;;;;;27.83;31.19;99734.50;4514356;31;33884;-89
2022/08/10 04:04:27;;;;;;;;;;;;;;;27.57;30.89;99733.94;4515483;31;33554;-89
2022/08/10 04:06:56;;;;;;;;;;;;;;;27.47;31.61;99735.31;4515718;31;34973;-90
2022/08/10 04:09:30;;;;;;;;;;;;;;;27.36;31.76;99740.28;4515476;31;34039;-90
2022/08/10 04:12:18;;;;;;;;;;;;;;;26.54;32.88;99751.06;4514873;31;33496;-90
2022/08/10 04:14:45;;;;;;;;;;;;;;;26.31;33.43;99749.34;4502291;31;34088;-88
2022/08/10 04:17:18;;;;;;;;;;;;;;;26.73;32.31;99751.09;4513941;31;33989;-88
2022/08/10 04:20:07;;;;;;;;;;;;;;;27.19;31.74;99748.19;4514482;31;34455;-89
2022/08/10 04:22:34;;;;;;;;;;;;;;;26.16;33.14;99750.88;4500190;31;34329;-89
2022/08/10 04:25:02;;;;;;;;;;;;;;;26.88;31.93;99747.75;4497847;31;33439;-90
2022/08/10 04:27:30;;;;;;;;;;;;;;;27.47;30.59;99738.00;4498103;31;34020;-89
2022/08/10 04:29:57;;;;;;;;;;;;;;;27.78;30.25;99737.41;4504604;31;34310;-91
2022/08/10 04:32:24;;;;;;;;;;;;;;;27.54;30.01;99742.09;4499443;31;33754;-90
2022/08/10 04:34:51;;;;;;;;;;;;;;;28.46;29.56;99745.56;4502875;31;34074;-91
2022/08/10 04:37:19;;;;;;;;;;;;;;;29.20;28.51;99736.31;4512371;31;33977;-92
2022/08/10 04:39:46;;;;;;;;;;;;;;;28.25;29.56;99733.28;4513040;31;34094;-91
2022/08/10 04:42:13;;;;;;;;;;;;;;;28.99;28.23;99743.72;4513549;31;33893;-91
2022/08/10 04:44:41;;;;;;;;;;;;;;;29.31;27.75;99739.25;4514671;31;34380;-91
2022/08/10 04:47:08;;;;;;;;;;;;;;;29.33;28.00;99745.41;4515317;31;33912;-91
2022/08/10 04:49:36;;;;;;;;;;;;;;;28.13;29.20;99750.78;4515231;31;34412;-91
2022/08/10 04:52:22;;;;;;;;;;;;;;;29.06;28.35;99751.31;4499772;31;33662;-90
2022/08/10 04:54:51;;;;;;;;;;;;;;;28.81;27.88;99750.84;4514830;31;32840;-90
2022/08/10 04:57:18;;;;;;;;;;;;;;;29.28;27.74;99742.09;4514842;31;35243;-91
2022/08/10 04:59:46;;;;;;;;;;;;;;;30.11;26.38;99745.44;4514521;31;34291;-92
2022/08/10 05:02:13;;;;;;;;;;;;;;;29.87;26.98;99745.94;4515320;31;33844;-92
2022/08/10 05:04:58;;;;;;;;;;;;;;;28.61;28.44;99743.91;4513363;31;33433;-90
2022/08/10 05:07:25;;;;;;;;;;;;;;;29.23;27.54;99752.19;4514252;31;34181;-91
2022/08/10 05:09:55;;;;;;;;;;;;;;;30.19;26.72;99752.13;4514268;31;35255;-88
2022/08/10 05:12:29;;;;;;;;;;;;;;;31.07;25.93;99752.19;4513821;31;33867;-92
2022/08/10 05:14:56;;;;;;;;;;;;;;;29.68;26.74;99751.47;4514940;31;33576;-90
2022/08/10 05:17:23;;;;;;;;;;;;;;;31.19;25.52;99749.59;4514218;31;34062;-90
2022/08/10 05:19:51;;;;;;;;;;;;;;;30.61;25.34;99761.22;4514231;31;34160;-90
2022/08/10 05:22:35;;;;;;;;;;;;;;;28.74;27.74;99746.78;4514357;31;35228;-89
2022/08/10 05:25:04;;;;;;;;;;;;;;;30.45;25.65;99750.53;4514194;31;34111;-90
2022/08/10 05:27:32;;;;;;;;;;;;;;;30.95;25.10;99745.75;4500785;31;33542;-89
2022/08/10 05:29:59;;;;;;;;;;;;;;;29.03;27.29;99754.12;4500928;31;34179;-89
2022/08/10 05:32:28;;;;;;;;;;;;;;;28.49;27.98;99749.84;4514531;31;33927;-91
2022/08/10 05:34:55;;;;;;;;;;;;;;;28.66;27.96;99746.31;4514193;31;33010;-89
2022/08/10 05:37:22;;;;;;;;;;;;;;;29.45;27.19;99741.19;4514299;31;33623;-91
2022/08/10 05:40:10;;;;;;;;;;;;;;;29.95;26.29;99754.34;4514265;31;35252;-90
2022/08/10 05:42:37;;;;;;;;;;;;;;;29.08;27.92;99753.88;4514429;31;34272;-90
2022/08/10 05:45:05;;;;;;;;;;;;;;;29.39;26.65;99750.37;4513787;31;33351;-91
2022/08/10 05:47:32;;;;;;;;;;;;;;;30.23;25.57;99755.44;4514478;31;35176;-89
2022/08/10 05:50:24;;;;;;;;;;;;;;;29.92;26.20;99753.66;4501909;31;34355;-89
2022/08/10 05:52:52;;;;;;;;;;;;;;;30.86;25.29;99749.87;4500184;31;34132;-88
2022/08/10 05:55:20;;;;;;;;;;;;;;;29.77;26.20;99750.91;4499954;31;33379;-89
2022/08/10 05:57:47;;;;;;;;;;;;;;;30.33;25.79;99751.28;4499598;31;34211;-92
2022/08/10 06:00:18;;;;;;;;;;;;;;;29.63;26.34;99744.66;4513756;31;34658;-87
2022/08/10 06:03:07;;;;;;;;;;;;;;;27.10;29.62;99750.31;4502418;31;37121;-91
2022/08/10 06:05:35;;;;;;;;;;;;;;;27.58;28.85;99753.47;4513978;31;34260;-90
2022/08/10 06:08:03;;;;;;;;;;;;;;;28.67;27.85;99745.38;4499575;31;34958;-88
2022/08/10 06:10:31;;;;;;;;;;;;;;;28.97;27.25;99754.41;4499883;31;34599;-88
2022/08/10 06:15:56;;;;;;;;;;;;;;;28.72;27.47;99746.88;4502732;31;34279;-91
2022/08/10 06:18:24;;;;;;;;;;;;;;;29.18;27.14;99751.59;4499237;31;34038;-89
2022/08/10 06:20:51;;;;;;;;;;;;;;;28.33;27.46;99760.44;4499207;31;34389;-92
2022/08/10 06:23:18;;;;;;;;;;;;;;;28.00;28.03;99761.19;4513652;31;34326;-90
2022/08/10 06:25:45;;;;;;;;;;;;;;;28.14;27.78;99761.34;4513875;31;33488;-88
2022/08/10 06:28:34;;;;;;;;;;;;;;;28.41;28.29;99754.72;4514266;31;33922;-90
2022/08/10 06:31:01;;;;;;;;;;;;;;;27.44;28.90;99748.78;4499090;31;34228;-89
2022/08/10 06:33:30;;;;;;;;;;;;;;;28.61;27.75;99755.44;4498453;31;34128;-91
2022/08/10 06:35:58;;;;;;;;;;;;;;;28.76;27.57;99752.91;4499439;31;34179;-91
2022/08/10 06:38:27;;;;;;;;;;;;;;;29.05;27.10;99749.56;4498684;31;33786;-87
2022/08/10 06:40:56;;;;;;;;;;;;;;;29.16;27.17;99748.13;4498992;31;34295;-87
2022/08/10 06:43:23;;;;;;;;;;;;;;;28.94;26.89;99753.72;4513638;31;34359;-89
2022/08/10 06:45:53;;;;;;;;;;;;;;;28.73;27.08;99753.06;4499737;31;33532;-89
2022/08/10 06:48:36;;;;;;;;;;;;;;;27.39;29.70;99758.81;4513367;31;35305;-89
2022/08/10 06:51:05;;;;;;;;;;;;;;;29.07;27.42;99752.16;4499344;31;34095;-88
2022/08/10 06:53:36;;;;;;;;;;;;;;;29.72;26.12;99753.00;4515305;31;35679;-90
2022/08/10 06:56:25;;;;;;;;;;;;;;;29.77;26.96;99753.59;4502721;31;33466;-90
2022/08/10 06:59:10;;;;;;;;;;;;;;;28.91;27.30;99752.09;4499456;31;35274;-89
2022/08/10 07:01:52;;;;;;;;;;;;;;;28.33;28.42;99755.09;4500727;31;34298;-90
2022/08/10 07:04:31;;;;;;;;;;;;;;;28.36;28.84;99753.12;4515830;31;34560;-91
2022/08/10 07:07:01;;;;;;;;;;;;;;;28.18;28.90;99758.53;4515669;31;33295;-89
2022/08/10 07:09:28;;;;;;;;;;;;;;;28.25;27.77;99751.97;4515494;31;34257;-88
2022/08/10 07:11:55;;;;;;;;;;;;;;;29.33;27.66;99753.41;4485631;31;34476;-89
2022/08/10 07:14:38;;;;;;;;;;;;;;;29.82;26.33;99753.34;4486489;31;35509;-88
2022/08/10 07:17:06;;;;;;;;;;;;;;;29.99;26.08;99747.88;4500591;31;33184;-92
2022/08/10 07:19:42;;;;;;;;;;;;;;;29.53;26.78;99755.81;4514829;31;35006;-89
2022/08/10 07:22:19;;;;;;;;;;;;;;;28.47;28.02;99755.28;4502374;31;33928;-91
2022/08/10 07:25:07;;;;;;;;;;;;;;;28.64;28.36;99748.19;4515265;31;34784;-87
2022/08/10 07:27:34;;;;;;;;;;;;;;;28.94;27.95;99748.38;4500186;31;34167;-88
2022/08/10 07:30:21;;;;;;;;;;;;;;;29.95;27.01;99749.00;4502834;31;33993;-89
2022/08/10 07:32:49;;;;;;;;;;;;;;;30.45;25.35;99744.34;4500465;31;34603;-88
2022/08/10 07:35:16;;;;;;;;;;;;;;;30.61;25.18;99744.25;4498230;31;34531;-87
2022/08/10 07:37:48;;;;;;;;;;;;;;;31.14;24.93;99738.31;4493235;31;33257;-89
2022/08/10 07:40:16;;;;;;;;;;;;;;;30.41;25.68;99738.31;4509796;31;34083;-88
2022/08/10 07:42:43;;;;;;;;;;;;;;;30.93;25.36;99735.16;4500261;31;35169;-88
2022/08/10 07:45:12;;;;;;;;;;;;;;;30.22;25.82;99743.03;4515562;31;35034;-89
2022/08/10 07:48:03;;;;;;;;;;;;;;;29.50;26.26;99739.09;4516063;31;33701;-89
2022/08/10 07:50:38;;;;;;;;;;;;;;;29.99;26.39;99736.31;4507467;31;34233;-87
2022/08/10 07:53:07;;;;;;;;;;;;;;;30.13;26.07;99732.84;4498766;31;34427;-87
2022/08/10 07:55:34;;;;;;;;;;;;;;;30.15;26.52;99738.97;4500611;31;33613;-90
2022/08/10 07:58:22;;;;;;;;;;;;;;;29.16;27.43;99734.78;4513510;31;33553;-91
2022/08/10 08:00:50;;;;;;;;;;;;;;;29.76;26.65;99732.31;4501145;31;34266;-87
2022/08/10 08:03:23;;;;;;;;;;;;;;;29.61;25.96;99743.88;4500244;31;35269;-88
2022/08/10 08:05:51;;;;;;;;;;;;;;;30.25;26.22;99748.19;4515593;31;34114;-86
2022/08/10 08:08:29;;;;;;;;;;;;;;;30.61;24.64;99744.25;4486776;31;33460;-88
2022/08/10 08:10:57;;;;;;;;;;;;;;;30.60;25.33;99743.41;4501368;31;35085;-90
2022/08/10 08:13:24;;;;;;;;;;;;;;;31.35;23.97;99733.44;4500671;31;34024;-87
2022/08/10 08:15:52;;;;;;;;;;;;;;;31.25;24.26;99732.25;4514779;31;33744;-87
2022/08/10 08:18:39;;;;;;;;;;;;;;;31.61;23.64;99731.75;4514733;31;33389;-88
2022/08/10 08:21:12;;;;;;;;;;;;;;;31.60;23.60;99724.66;4515188;31;34051;-89
2022/08/10 08:23:59;;;;;;;;;;;;;;;30.36;24.99;99742.22;4502692;31;34061;-87
2022/08/10 08:26:42;;;;;;;;;;;;;;;30.91;24.03;99731.72;4498765;31;34085;-88
2022/08/10 08:29:18;;;;;;;;;;;;;;;31.22;23.31;99730.66;4500745;31;33863;-91
2022/08/10 08:31:45;;;;;;;;;;;;;;;31.66;22.70;99726.94;4514852;31;34327;-87
2022/08/10 08:34:29;;;;;;;;;;;;;;;30.05;24.16;99742.19;4515116;31;35258;-88
2022/08/10 08:36:56;;;;;;;;;;;;;;;30.57;24.41;99732.03;4513981;31;34569;-88
2022/08/10 08:39:25;;;;;;;;;;;;;;;31.53;23.66;99728.72;4515343;31;33623;-87
2022/08/10 08:42:11;;;;;;;;;;;;;;;31.21;23.29;99725.38;4515313;31;33850;-90
2022/08/10 08:44:47;;;;;;;;;;;;;;;30.20;24.80;99728.91;4514928;31;33993;-90
2022/08/10 08:47:33;;;;;;;;;;;;;;;31.13;23.60;99725.00;4497181;31;35130;-93
2022/08/10 08:50:43;;;;;;;;;;;;;;;31.00;23.64;99731.12;4514676;31;33953;-92
2022/08/10 08:53:27;;;;;;;;;;;;;;;31.73;22.98;99730.94;4515205;31;33850;-90
2022/08/10 08:56:20;;;;;;;;;;;;;;;31.97;22.07;99728.50;4514163;31;34897;-92
2022/08/10 08:59:01;;;;;;;;;;;;;;;31.49;24.16;99720.00;4498259;31;34563;-90
2022/08/10 09:01:32;;;;;;;;;;;;;;;30.45;24.35;99726.47;4501137;31;33620;-92
2022/08/10 09:04:26;;;;;;;;;;;;;;;31.06;22.91;99723.66;4513674;31;33885;-91
2022/08/10 09:06:56;;;;;;;;;;;;;;;31.42;23.40;99718.69;4513542;31;35247;-90
2022/08/10 09:09:30;;;;;;;;;;;;;;;30.26;25.21;99716.00;4515057;31;34290;-92
2022/08/10 09:12:12;;;;;;;;;;;;;;;31.25;23.13;99724.22;4514589;31;32946;-89
2022/08/10 09:14:40;;;;;;;;;;;;;;;31.54;23.43;99718.84;4513238;31;34000;-89
2022/08/10 09:17:16;;;;;;;;;;;;;;;31.04;22.85;99718.41;4502788;31;35240;-89
2022/08/10 09:19:48;;;;;;;;;;;;;;;31.47;23.36;99713.88;4506510;31;34183;-92
2022/08/10 09:22:31;;;;;;;;;;;;;;;31.94;22.50;99712.59;4514732;31;33063;-92
2022/08/10 09:24:58;;;;;;;;;;;;;;;32.21;21.72;99706.34;4500229;31;33979;-94
2022/08/10 09:27:31;;;;;;;;;;;;;;;31.29;23.55;99716.84;4514785;31;35174;-91
2022/08/10 09:30:06;;;;;;;;;;;;;;;32.42;21.36;99710.25;4500498;31;34971;-92
2022/08/10 09:32:37;;;;;;;;;;;;;;;32.36;21.58;99709.78;4507008;31;33819;-93
2022/08/10 09:35:27;;;;;;;;;;;;;;;32.55;21.83;99706.72;4504765;31;34090;-90
2022/08/10 09:38:21;;;;;;;;;;;;;;;32.55;21.02;99717.47;4514488;31;33735;-90
2022/08/10 09:40:51;;;;;;;;;;;;;;;32.83;21.06;99716.38;4514185;31;34182;-90
2022/08/10 09:43:39;;;;;;;;;;;;;;;32.66;21.59;99712.22;4498752;31;33416;-92
2022/08/10 09:46:12;;;;;;;;;;;;;;;32.03;21.38;99702.22;4507626;31;33827;-90
2022/08/10 09:48:44;;;;;;;;;;;;;;;31.91;21.75;99699.41;4514603;31;35371;-91
2022/08/10 09:51:13;;;;;;;;;;;;;;;32.00;22.28;99702.41;4508529;31;34657;-88
2022/08/10 09:54:09;;;;;;;;;;;;;;;32.03;21.68;99707.59;4513423;31;33137;-89
2022/08/10 09:56:45;;;;;;;;;;;;;;;32.58;21.92;99706.50;4512622;31;33515;-90
2022/08/10 09:59:15;;;;;;;;;;;;;;;32.72;22.00;99706.38;4514242;31;34489;-93
2022/08/10 10:02:16;;;;;;;;;;;;;;;32.06;22.18;99699.34;4514272;31;34151;-89
2022/08/10 10:04:44;;;;;;;;;;;;;;;32.40;21.28;99692.56;4512879;31;33226;-90
2022/08/10 10:07:13;;;;;;;;;;;;;;;31.80;22.00;99691.19;4514103;31;34041;-90
2022/08/10 10:09:59;;;;;;;;;;;;;;;31.31;22.91;99691.72;4514374;31;34468;-90
2022/08/10 10:13:02;;;;;;;;;;;;;;;30.85;22.50;99691.94;4513859;31;34308;-88
2022/08/10 10:15:47;;;;;;;;;;;;;;;31.39;22.32;99686.72;4448752;32;33347;-90
2022/08/10 10:18:34;;;;;;;;;;;;;;;31.05;22.87;99684.47;4507574;31;34095;-89
2022/08/10 10:21:11;;;;;;;;;;;;;;;31.28;22.13;99689.19;4512829;31;34162;-90
2022/08/10 10:24:17;;;;;;;;;;;;;;;31.76;22.05;99678.94;4512690;31;34787;-88
2022/08/10 10:26:56;;;;;;;;;;;;;;;32.63;21.10;99682.88;4514495;31;33602;-91
2022/08/10 10:29:42;;;;;;;;;;;;;;;32.60;20.84;99670.53;4516393;31;33738;-89
2022/08/10 10:32:28;;;;;;;;;;;;;;;32.82;20.96;99672.56;4515777;31;35340;-89
2022/08/10 10:35:08;;;;;;;;;;;;;;;33.02;19.13;99664.94;4515253;31;33864;-90
2022/08/10 10:37:36;;;;;;;;;;;;;;;33.14;19.78;99664.03;4514862;31;34201;-89
2022/08/10 10:40:24;;;;;;;;;;;;;;;31.83;21.08;99664.16;4515050;31;33593;-91
2022/08/10 10:43:10;;;;;;;;;;;;;;;32.61;20.38;99657.97;4515919;31;34580;-91
2022/08/10 10:45:53;;;;;;;;;;;;;;;32.91;19.82;99658.44;4514969;31;34185;-90
2022/08/10 10:48:40;;;;;;;;;;;;;;;33.59;19.36;99661.62;4514741;31;33566;-89
2022/08/10 10:51:16;;;;;;;;;;;;;;;32.92;18.07;99641.41;4515700;31;33897;-88
2022/08/10 10:53:46;;;;;;;;;;;;;;;33.06;19.70;99640.41;4515926;31;35413;-88
2022/08/10 10:56:26;;;;;;;;;;;;;;;32.41;19.34;99646.81;4515960;31;33855;-89
2022/08/10 10:59:12;;;;;;;;;;;;;;;32.85;20.31;99650.84;4516166;31;33443;-90
2022/08/10 11:02:16;;;;;;;;;;;;;;;32.97;19.02;99645.59;4515976;31;34851;-90
2022/08/10 11:05:02;;;;;;;;;;;;;;;33.09;19.34;99648.25;4516012;31;35218;-89
2022/08/10 11:07:41;;;;;;;;;;;;;;;32.77;19.13;99650.56;4516103;31;34310;-90
2022/08/10 11:10:15;;;;;;;;;;;;;;;32.06;17.98;99649.22;4516035;31;33572;-89
2022/08/10 11:13:00;;;;;;;;;;;;;;;33.18;18.57;99646.72;4514878;31;34192;-91
2022/08/10 11:15:50;;;;;;;;;;;;;;;32.32;19.37;99641.22;4515626;31;35280;-90
2022/08/10 11:18:22;;;;;;;;;;;;;;;33.67;17.57;99645.78;4515843;31;34238;-94
2022/08/10 11:20:50;;;;;;;;;;;;;;;32.38;19.12;99630.88;4514512;31;33446;-93
2022/08/10 11:23:18;;;;;;;;;;;;;;;32.23;19.10;99619.37;4514777;31;34258;-91
2022/08/10 11:25:47;;;;;;;;;;;;;;;32.19;20.55;99635.81;4515814;31;35349;-88
2022/08/10 11:28:23;;;;;;;;;;;;;;;32.16;19.53;99636.91;4514628;31;35213;-90
2022/08/10 11:30:53;;;;;;;;;;;;;;;32.74;20.07;99629.28;4515859;31;33591;-94
2022/08/10 11:33:37;;;;;;;;;;;;;;;33.08;20.17;99626.87;4515535;31;35073;-90
2022/08/10 11:36:25;;;;;;;;;;;;;;;33.97;18.92;99628.28;4514437;31;35323;-90
2022/08/10 11:38:54;;;;;;;;;;;;;;;33.26;19.02;99630.88;4516241;31;33779;-90
2022/08/10 11:41:43;;;;;;;;;;;;;;;33.02;19.14;99635.37;4515406;31;33423;-93
2022/08/10 11:44:33;;;;;;;;;;;;;;;32.98;18.57;99625.81;4515582;31;34099;-90
2022/08/10 11:47:06;;;;;;;;;;;;;;;33.84;18.40;99628.37;4513990;31;34355;-90
2022/08/10 11:49:42;;;;;;;;;;;;;;;33.45;18.68;99613.37;4515882;31;34545;-88
2022/08/10 11:52:14;;;;;;;;;;;;;;;32.81;18.74;99624.34;4515677;31;33322;-90
2022/08/10 11:54:51;;;;;;;;;;;;;;;32.16;19.27;99620.81;4514328;31;35070;-92
2022/08/10 11:57:19;;;;;;;;;;;;;;;32.69;19.55;99629.63;4514429;31;34158;-90
2022/08/10 11:59:56;;;;;;;;;;;;;;;33.00;18.24;99621.19;4513849;31;34253;-90
2022/08/10 12:02:28;;;;;;;;;;;;;;;33.21;18.77;99619.63;4515326;31;33410;-89
2022/08/10 12:05:11;;;;;;;;;;;;;;;32.91;18.65;99623.53;4514847;31;34328;-94
2022/08/10 12:07:40;;;;;;;;;;;;;;;32.73;18.91;99622.19;4498167;31;34295;-86
2022/08/10 12:10:27;;;;;;;;;;;;;;;32.77;17.85;99620.13;4510195;31;35301;-90
2022/08/10 12:13:06;;;;;;;;;;;;;;;33.13;17.72;99612.13;4513849;31;33759;-88
2022/08/10 12:15:37;;;;;;;;;;;;;;;33.20;17.28;99609.84;4511447;31;35066;-85
2022/08/10 12:18:06;;;;;;;;;;;;;;;33.85;16.98;99609.41;4513158;31;35295;-88
2022/08/10 12:20:34;;;;;;;;;;;;;;;33.74;17.57;99609.38;4499009;31;34227;-89
2022/08/10 12:23:10;;;;;;;;;;;;;;;33.74;17.58;99606.69;4513373;31;33122;-88
2022/08/10 12:25:57;;;;;;;;;;;;;;;33.04;17.58;99610.13;4514917;31;33629;-86
2022/08/10 12:28:33;;;;;;;;;;;;;;;33.28;16.22;99590.47;4504036;31;33961;-84
2022/08/10 12:31:29;;;;;;;;;;;;;;;33.60;16.27;99601.50;4502926;31;33903;-88
2022/08/10 12:34:04;;;;;;;;;;;;;;;33.16;17.22;99589.56;4515148;31;33151;-88
2022/08/10 12:36:35;;;;;;;;;;;;;;;33.96;15.67;99595.16;4514406;31;34803;-84
2022/08/10 12:39:02;;;;;;;;;;;;;;;33.73;16.10;99599.63;4513400;31;34554;-89
2022/08/10 12:41:30;;;;;;;;;;;;;;;33.52;17.31;99598.53;4515082;31;32629;-87
2022/08/10 12:44:32;;;;;;;;;;;;;;;33.21;17.28;99592.75;4503993;31;33036;-86
2022/08/10 12:47:18;;;;;;;;;;;;;;;33.43;17.19;99592.84;4506201;31;33979;-86
2022/08/10 12:49:48;;;;;;;;;;;;;;;33.76;15.65;99585.94;4506560;31;33945;-87
2022/08/10 12:52:41;;;;;;;;;;;;;;;33.97;15.91;99580.72;4502325;31;35103;-86
2022/08/10 12:55:08;;;;;;;;;;;;;;;33.93;15.10;99586.47;4504656;31;33582;-86
2022/08/10 12:57:36;;;;;;;;;;;;;;;34.17;14.31;99581.87;4508422;31;34268;-86
2022/08/10 13:00:04;;;;;;;;;;;;;;;33.97;16.42;99575.34;4501417;31;35215;-83
2022/08/10 13:02:39;;;;;;;;;;;;;;;33.83;15.48;99579.13;4502742;31;34214;-86
2022/08/10 13:05:13;;;;;;;;;;;;;;;34.38;16.31;99580.19;4499009;31;33219;-88
2022/08/10 13:07:45;;;;;;;;;;;;;;;33.84;16.51;99574.59;4504190;31;34999;-92
2022/08/10 13:10:32;;;;;;;;;;;;;;;33.61;16.96;99568.28;4514748;31;34486;-90
2022/08/10 13:12:59;;;;;;;;;;;;;;;33.95;16.53;99576.44;4500378;31;34298;-91
2022/08/10 13:15:29;;;;;;;;;;;;;;;33.64;18.03;99568.91;4511614;31;34004;-91
2022/08/10 13:18:35;;;;;;;;;;;;;;;33.52;17.19;99559.06;4513853;31;34315;-88
2022/08/10 13:21:07;;;;;;;;;;;;;;;33.23;16.66;99563.94;4514089;31;34282;-92
2022/08/10 13:23:58;;;;;;;;;;;;;;;33.32;17.14;99559.69;4513580;31;34222;-85
2022/08/10 13:26:33;;;;;;;;;;;;;;;33.22;17.60;99566.72;4514858;31;34144;-88
2022/08/10 13:29:02;;;;;;;;;;;;;;;33.72;16.88;99562.94;4501431;31;34679;-89
2022/08/10 13:31:40;;;;;;;;;;;;;;;34.14;16.95;99544.47;4501769;31;34167;-91